KFFO/FFO METAR and TAF weather

Enter ICAO airport designator
Station Type Date Time Source
KFFO METAR 2024/07/24 11:55 UTC NOAA

KFFO 241155Z AUTO 18004KT 10SM CLR 21/19 A3012 RMK AO2 SLP196 T02140189 10217 20191 52012 $


Station Type Date Time Source
KFFO Decoded METAR 2024/07/24 11:55 UTC NOAA

Dayton / Wright-Patterson Air Force Base, OH, United States (KFFO) 39-50N 084-03W 251M
Jul 24, 2024 - 07:55 AM EDT / 2024.07.24 1155 UTC
Wind: from the S (180 degrees) at 5 MPH (4 KT):0
Visibility: 10 mile(s):0
Sky conditions: clear
Temperature: 70.5 F (21.4 C)
Dew Point: 66.0 F (18.9 C)
Relative Humidity: 85%
Pressure (altimeter): 30.12 in. Hg (1019 hPa)
Pressure tendency: 0.04 inches (1.2 hPa) higher than three hours ago
ob: KFFO 241155Z AUTO 18004KT 10SM CLR 21/19 A3012 RMK AO2 SLP196 T02140189 10217 20191 52012
cycle: 12

Station Type Date Time Source
KFFO TAF 2024/07/24 11:07 UTC NOAA